Valgardena — ICKG — position and weather

sailwx.info

Track history (hours):
 
Tides and Currents Weather Stations Pressure Air Temp Water Temp Dewpoint Dewpoint Depression Visibility Wind Speed Wind Dir Waves Ship Positions

Valgardena

Last reported at 2014-Oct-21 17:17 UTC. Time now 2014-Oct-23 09:38 UTC.
Position N 37°36' E 008°03'.

Length 184 m; draft 9.4 m.

Type: Ship. MMSI: 247243800.

Date/timePositionNaut miles runAvg speedWind from/ knotsBaromVisibWave heightAir tempDewpointWater temp
2014-Oct-21 17:17N 37°36' E 008°03'1013.2
2014-Oct-21 16:33N 37°37' E 008°15'1313.3
2014-Oct-21 15:34N 37°37' E 008°32'1313.0
2014-Oct-21 14:33N 37°37' E 008°48'1312.5
2014-Oct-21 13:31N 37°37' E 009°05'1212.5
2014-Oct-21 12:32N 37°38' E 009°20'1212.3
2014-Oct-21 11:33N 37°39' E 009°35'1212.3
2014-Oct-21 10:33N 37°39' E 009°51'1412.3
2014-Oct-21 09:22N 37°39' E 010°09'1012.1
2014-Oct-21 08:33N 37°39' E 010°22'16113.1
2014-Oct-20 20:15N 36°53' E 013°36'913.5
2014-Oct-20 19:33N 36°48' E 013°46'1313.2
2014-Oct-20 18:33N 36°41' E 013°60'1312.9
2014-Oct-20 17:33N 36°36' E 014°14'1312.8
2014-Oct-20 16:31N 36°31' E 014°29'40 4.2
2014-Oct-20 07:13N 36°28' E 015°18'  
Track history (hours):
 
Tides and Currents Weather Stations Pressure Air Temp Water Temp Dewpoint Dewpoint Depression Visibility Wind Speed Wind Dir Waves Ship Positions

Valgardena

Last reported at 2014-Oct-21 17:17 UTC. Time now 2014-Oct-23 09:38 UTC.
Position N 37°36' E 008°03'.

Length 184 m; draft 9.4 m.

Type: Ship. MMSI: 247243800.

Date/timePositionNaut miles runAvg speedWind from/ knotsBaromVisibWave heightAir tempDewpointWater temp
2014-Oct-21 17:17N 37°36' E 008°03'1013.2
2014-Oct-21 16:33N 37°37' E 008°15'1313.3
2014-Oct-21 15:34N 37°37' E 008°32'1313.0
2014-Oct-21 14:33N 37°37' E 008°48'1312.5
2014-Oct-21 13:31N 37°37' E 009°05'1212.5
2014-Oct-21 12:32N 37°38' E 009°20'1212.3
2014-Oct-21 11:33N 37°39' E 009°35'1212.3
2014-Oct-21 10:33N 37°39' E 009°51'1412.3
2014-Oct-21 09:22N 37°39' E 010°09'1012.1
2014-Oct-21 08:33N 37°39' E 010°22'16113.1
2014-Oct-20 20:15N 36°53' E 013°36'913.5
2014-Oct-20 19:33N 36°48' E 013°46'1313.2
2014-Oct-20 18:33N 36°41' E 013°60'1312.9
2014-Oct-20 17:33N 36°36' E 014°14'1312.8
2014-Oct-20 16:31N 36°31' E 014°29'40 4.2
2014-Oct-20 07:13N 36°28' E 015°18'  

Dump ship's entire track history